createdAt,value
2023-01-21T00:01:04.404Z,3.42
2023-01-21T00:03:32.218Z,3.39
2023-01-21T00:05:59.765Z,3.34
2023-01-21T00:08:27.431Z,3.36
2023-01-21T00:10:55.016Z,3.36
2023-01-21T00:13:22.693Z,3.35
2023-01-21T00:15:49.855Z,3.33
2023-01-21T00:18:17.344Z,3.38
2023-01-21T00:20:45.826Z,3.39
2023-01-21T00:23:13.105Z,3.38
2023-01-21T00:25:41.263Z,3.31
2023-01-21T00:28:08.113Z,3.16
2023-01-21T00:30:37.433Z,3.13
2023-01-21T00:33:05.101Z,3.09
2023-01-21T00:35:31.924Z,3.05
2023-01-21T00:37:58.743Z,3.02
2023-01-21T00:40:26.704Z,3.04
2023-01-21T00:42:53.884Z,3.02
2023-01-21T00:45:20.648Z,3.00
2023-01-21T00:47:47.615Z,3.00
2023-01-21T00:50:15.351Z,2.95
2023-01-21T00:52:42.832Z,2.91
2023-01-21T00:55:10.332Z,2.90
2023-01-21T00:57:37.495Z,2.93
2023-01-21T01:00:05.975Z,2.93
2023-01-21T01:02:32.820Z,2.93
2023-01-21T01:04:59.659Z,2.91
2023-01-21T01:07:27.063Z,2.90
2023-01-21T01:09:54.519Z,2.88
2023-01-21T01:12:22.337Z,2.90
2023-01-21T01:14:49.523Z,2.89
2023-01-21T01:17:17.442Z,2.90
2023-01-21T01:19:44.202Z,2.94
2023-01-21T01:22:10.947Z,2.97
2023-01-21T01:24:37.736Z,2.99
2023-01-21T01:27:06.178Z,2.98
2023-01-21T01:29:32.999Z,2.98
2023-01-21T01:31:59.828Z,3.01
2023-01-21T01:34:26.761Z,3.01
2023-01-21T01:36:54.377Z,3.03
2023-01-21T01:39:21.611Z,3.04
2023-01-21T01:41:48.391Z,3.03
2023-01-21T01:44:53.264Z,3.01
2023-01-21T01:47:21.399Z,2.99
2023-01-21T01:49:49.109Z,2.99
2023-01-21T01:52:17.508Z,3.00
2023-01-21T01:54:53.617Z,3.00
2023-01-21T01:57:25.721Z,2.97
2023-01-21T01:59:53.179Z,2.98
2023-01-21T02:02:20.830Z,2.99
2023-01-21T02:04:53.712Z,2.99
2023-01-21T02:07:24.093Z,3.00
2023-01-21T02:09:53.731Z,2.99
2023-01-21T02:12:21.127Z,2.96
2023-01-21T02:14:49.320Z,2.90
2023-01-21T02:17:40.010Z,2.85
2023-01-21T02:20:27.872Z,2.82
2023-01-21T02:23:16.972Z,2.82
2023-01-21T02:26:16.576Z,2.80
2023-01-21T02:29:11.208Z,2.75
2023-01-21T02:32:15.820Z,2.75
2023-01-21T02:34:59.987Z,2.76
2023-01-21T02:38:07.224Z,2.78
2023-01-21T02:41:05.597Z,2.75
2023-01-21T02:44:11.602Z,2.69
2023-01-21T02:46:45.860Z,2.65
2023-01-21T02:49:21.870Z,2.64
2023-01-21T02:51:49.778Z,2.61
2023-01-21T02:54:40.226Z,2.59
2023-01-21T02:57:11.341Z,2.56
2023-01-21T02:59:43.827Z,2.54
2023-01-21T03:02:36.602Z,2.54
2023-01-21T03:05:40.376Z,2.58
2023-01-21T03:08:16.266Z,2.59
2023-01-21T03:11:01.687Z,2.58
2023-01-21T03:13:56.410Z,2.58
2023-01-21T03:16:52.869Z,2.57
2023-01-21T03:19:22.379Z,2.59
2023-01-21T03:21:51.850Z,2.61
2023-01-21T03:24:20.054Z,2.59
2023-01-21T03:26:52.075Z,2.60
2023-01-21T03:29:24.064Z,2.64
2023-01-21T03:31:57.301Z,2.65
2023-01-21T03:34:28.393Z,2.66
2023-01-21T03:37:05.574Z,2.62
2023-01-21T03:39:44.343Z,2.64
2023-01-21T03:42:13.440Z,2.64
2023-01-21T03:44:42.215Z,2.64
2023-01-21T03:47:24.423Z,2.60
2023-01-21T03:50:10.270Z,2.60
2023-01-21T03:52:41.284Z,2.60
2023-01-21T03:55:09.449Z,2.61
2023-01-21T03:57:36.841Z,2.59
2023-01-21T04:00:05.884Z,2.59
2023-01-21T04:02:33.438Z,2.58
2023-01-21T04:05:01.138Z,2.57
2023-01-21T04:07:28.001Z,2.56
2023-01-21T04:09:54.840Z,2.58
2023-01-21T04:12:22.155Z,2.56
2023-01-21T04:14:50.815Z,2.55
2023-01-21T04:17:17.732Z,2.50
2023-01-21T04:19:45.986Z,2.47
2023-01-21T04:22:13.016Z,2.45
2023-01-21T04:24:40.199Z,2.46
2023-01-21T04:27:07.739Z,2.49
2023-01-21T04:29:34.913Z,2.50
2023-01-21T04:32:01.685Z,2.46
2023-01-21T04:34:28.538Z,2.47
2023-01-21T04:36:56.150Z,2.46
2023-01-21T04:39:24.113Z,2.46
2023-01-21T04:41:50.910Z,2.47
2023-01-21T04:44:18.275Z,2.49
2023-01-21T04:46:45.950Z,2.49
2023-01-21T04:49:12.776Z,2.49
2023-01-21T04:51:39.542Z,2.50
2023-01-21T04:54:06.683Z,2.47
2023-01-21T04:56:34.958Z,2.46
2023-01-21T04:59:01.716Z,2.44
2023-01-21T05:01:28.582Z,2.41
2023-01-21T05:03:55.927Z,2.40
2023-01-21T05:06:23.846Z,2.37
2023-01-21T05:08:50.660Z,2.36
2023-01-21T05:11:20.466Z,2.35
2023-01-21T05:13:47.262Z,2.31
2023-01-21T05:16:14.609Z,2.31
2023-01-21T05:18:42.129Z,2.30
2023-01-21T05:21:09.374Z,2.30
2023-01-21T05:23:36.170Z,2.29
2023-01-21T05:26:03.594Z,2.30
2023-01-21T05:28:30.624Z,2.29
2023-01-21T05:31:02.760Z,2.30
2023-01-21T05:33:35.505Z,2.32
2023-01-21T05:36:04.479Z,2.35
2023-01-21T05:38:32.040Z,2.37
2023-01-21T05:41:01.222Z,2.38
2023-01-21T05:43:28.979Z,2.37
2023-01-21T05:45:57.743Z,2.35
2023-01-21T05:48:24.851Z,2.31
2023-01-21T05:50:52.120Z,2.31
2023-01-21T05:53:20.387Z,2.31
2023-01-21T05:55:52.260Z,2.29
2023-01-21T05:58:19.306Z,2.29
2023-01-21T06:00:48.106Z,2.27
2023-01-21T06:03:16.138Z,2.26
2023-01-21T06:05:44.102Z,2.25
2023-01-21T06:08:12.074Z,2.26
2023-01-21T06:10:39.209Z,2.28
2023-01-21T06:13:06.517Z,2.29
2023-01-21T06:15:33.946Z,2.28
2023-01-21T06:18:01.287Z,2.29
2023-01-21T06:20:31.620Z,2.32
2023-01-21T06:22:59.698Z,2.32
2023-01-21T06:25:28.067Z,2.32
2023-01-21T06:27:56.333Z,2.31
2023-01-21T06:30:27.460Z,2.31
2023-01-21T06:32:55.340Z,2.30
2023-01-21T06:35:22.181Z,2.29
2023-01-21T06:37:49.086Z,2.31
2023-01-21T06:40:17.915Z,2.37
2023-01-21T06:42:49.513Z,2.46
2023-01-21T06:45:16.598Z,2.50
2023-01-21T06:47:45.402Z,2.53
2023-01-21T06:50:16.097Z,2.55
2023-01-21T06:52:45.135Z,2.55
2023-01-21T06:55:13.600Z,2.56
2023-01-21T06:57:40.852Z,2.58
2023-01-21T07:00:09.790Z,2.58
2023-01-21T07:02:36.588Z,2.59
2023-01-21T07:05:05.228Z,2.60
2023-01-21T07:07:32.566Z,2.62
2023-01-21T07:09:59.430Z,2.62
2023-01-21T07:12:26.292Z,2.66
2023-01-21T07:14:53.651Z,2.70
2023-01-21T07:17:21.676Z,2.76
2023-01-21T07:19:48.462Z,2.85
2023-01-21T07:22:15.355Z,2.94
2023-01-21T07:24:46.211Z,2.93
2023-01-21T07:27:14.597Z,2.98
2023-01-21T07:29:41.384Z,2.97
2023-01-21T07:32:08.221Z,3.02
2023-01-21T07:34:35.628Z,3.01
2023-01-21T07:37:03.269Z,3.01
2023-01-21T07:39:30.043Z,3.02
2023-01-21T07:41:56.784Z,2.98
2023-01-21T07:44:26.455Z,3.00
2023-01-21T07:46:53.432Z,3.00
2023-01-21T07:49:20.194Z,3.03
2023-01-21T07:51:48.856Z,3.01
2023-01-21T07:54:16.035Z,2.99
2023-01-21T07:56:42.801Z,3.00
2023-01-21T07:59:13.347Z,3.01
2023-01-21T08:01:40.852Z,3.05
2023-01-21T08:04:09.866Z,3.02
2023-01-21T08:06:41.481Z,3.09
2023-01-21T08:09:10.584Z,3.12
2023-01-21T08:11:37.372Z,3.19
2023-01-21T08:14:04.181Z,3.23
2023-01-21T08:16:31.073Z,3.26
2023-01-21T08:18:58.555Z,3.19
2023-01-21T08:21:25.904Z,3.11
2023-01-21T08:23:53.395Z,3.06
2023-01-21T08:26:20.561Z,3.20
2023-01-21T08:28:48.736Z,3.35
2023-01-21T08:31:15.662Z,3.44
2023-01-21T08:33:42.626Z,3.61
2023-01-21T08:36:10.157Z,3.75
2023-01-21T08:38:37.616Z,3.82
2023-01-21T08:41:04.962Z,3.84
2023-01-21T08:43:31.761Z,3.85
2023-01-21T08:46:01.668Z,3.90
2023-01-21T08:48:29.662Z,3.78
2023-01-21T08:51:00.651Z,3.89
2023-01-21T08:53:29.216Z,3.95
2023-01-21T08:56:00.918Z,4.02
2023-01-21T08:58:29.789Z,4.12
2023-01-21T09:00:58.019Z,4.17
2023-01-21T09:03:24.944Z,4.22
2023-01-21T09:05:52.363Z,4.28
2023-01-21T09:08:21.270Z,4.20
2023-01-21T09:11:03.236Z,3.95
2023-01-21T09:13:33.274Z,3.85
2023-01-21T09:16:01.039Z,3.75
2023-01-21T09:18:29.508Z,3.75
2023-01-21T09:21:04.056Z,3.74
2023-01-21T09:23:34.984Z,3.72
2023-01-21T09:26:15.038Z,3.75
2023-01-21T09:28:45.113Z,3.71
2023-01-21T09:31:14.610Z,3.69
2023-01-21T09:33:45.221Z,3.68
2023-01-21T09:36:20.030Z,3.49
2023-01-21T09:38:49.142Z,3.65
2023-01-21T09:41:27.986Z,3.78
2023-01-21T09:44:10.009Z,3.87
2023-01-21T09:47:19.585Z,4.01
2023-01-21T09:49:54.925Z,4.19
2023-01-21T09:52:25.811Z,4.20
2023-01-21T09:54:53.879Z,4.12
2023-01-21T09:57:42.075Z,3.98
2023-01-21T10:00:25.341Z,3.87
2023-01-21T10:03:03.156Z,3.85
2023-01-21T10:05:58.146Z,3.84
2023-01-21T10:09:19.959Z,3.89
2023-01-21T10:11:50.469Z,3.90
2023-01-21T10:14:36.965Z,3.90
2023-01-21T10:17:42.006Z,3.92
2023-01-21T10:20:17.533Z,3.92
2023-01-21T10:22:53.748Z,3.99
2023-01-21T10:25:31.149Z,4.00
2023-01-21T10:28:14.809Z,4.07
2023-01-21T10:30:49.546Z,4.10
2023-01-21T10:33:24.269Z,4.13
2023-01-21T10:36:16.919Z,4.09
2023-01-21T10:39:14.939Z,4.14
2023-01-21T10:42:03.703Z,4.12
2023-01-21T10:44:51.421Z,4.18
2023-01-21T10:47:30.569Z,4.20
2023-01-21T10:50:24.422Z,4.37
2023-01-21T10:52:51.134Z,4.49
2023-01-21T10:55:45.148Z,4.49
2023-01-21T10:58:26.103Z,4.46
2023-01-21T11:00:55.170Z,4.42
2023-01-21T11:03:34.406Z,4.28
2023-01-21T11:06:06.945Z,4.08
2023-01-21T11:08:34.687Z,3.93
2023-01-21T11:11:03.144Z,3.78
2023-01-21T11:13:30.045Z,3.64
2023-01-21T11:15:59.501Z,3.64
2023-01-21T11:18:35.550Z,3.46
2023-01-21T11:21:21.329Z,3.63
2023-01-21T11:24:18.452Z,3.59
2023-01-21T11:26:53.487Z,3.57
2023-01-21T11:29:22.405Z,3.65
2023-01-21T11:32:23.983Z,3.69
2023-01-21T11:35:21.839Z,3.82
2023-01-21T11:37:48.883Z,3.91
2023-01-21T11:40:25.013Z,4.09
2023-01-21T11:42:55.409Z,4.12
2023-01-21T11:45:33.607Z,4.00
2023-01-21T11:48:01.456Z,4.04
2023-01-21T11:50:28.828Z,4.13
2023-01-21T11:53:08.483Z,4.18
2023-01-21T11:55:41.899Z,4.22
2023-01-21T11:58:21.136Z,4.22
2023-01-21T12:00:51.895Z,4.26
2023-01-21T12:03:24.103Z,4.34
2023-01-21T12:05:53.866Z,4.41
2023-01-21T12:08:26.481Z,4.50
2023-01-21T12:10:56.422Z,4.46
2023-01-21T12:13:46.101Z,4.34
2023-01-21T12:16:33.836Z,4.17
2023-01-21T12:19:37.366Z,4.00
2023-01-21T12:22:42.585Z,3.91
2023-01-21T12:25:18.644Z,3.89
2023-01-21T12:28:08.087Z,3.87
2023-01-21T12:31:02.368Z,3.83
2023-01-21T12:33:32.319Z,3.83
2023-01-21T12:36:29.450Z,3.87
2023-01-21T12:39:36.714Z,3.88
2023-01-21T12:42:20.245Z,3.97
2023-01-21T12:44:59.680Z,4.06
2023-01-21T12:47:37.815Z,4.10
2023-01-21T12:50:23.585Z,4.13
2023-01-21T12:53:05.580Z,4.13
2023-01-21T12:55:47.983Z,4.06
2023-01-21T12:58:19.486Z,4.04
2023-01-21T13:00:49.488Z,4.04
2023-01-21T13:03:22.062Z,4.02
2023-01-21T13:05:56.598Z,4.03
2023-01-21T13:08:54.530Z,4.07
2023-01-21T13:11:26.980Z,4.18
2023-01-21T13:14:13.766Z,4.31
2023-01-21T13:16:50.945Z,4.38
2023-01-21T13:19:18.560Z,4.45
2023-01-21T13:22:21.095Z,4.26
2023-01-21T13:25:06.902Z,3.95
2023-01-21T13:27:41.764Z,3.90
2023-01-21T13:30:45.171Z,3.82
2023-01-21T13:33:21.414Z,3.85
2023-01-21T13:36:12.350Z,3.84
2023-01-21T13:39:01.461Z,3.85
2023-01-21T13:41:38.246Z,3.86
2023-01-21T13:44:34.988Z,3.86
2023-01-21T13:47:11.847Z,3.85
2023-01-21T13:49:51.431Z,3.83
2023-01-21T13:52:43.783Z,3.82
2023-01-21T13:55:10.684Z,3.78
2023-01-21T13:57:52.285Z,3.80
2023-01-21T14:00:51.220Z,3.83
2023-01-21T14:03:39.576Z,3.88
2023-01-21T14:06:26.243Z,3.90
2023-01-21T14:08:56.939Z,3.92
2023-01-21T14:11:34.882Z,3.93
2023-01-21T14:14:23.261Z,3.94
2023-01-21T14:17:14.574Z,3.92
2023-01-21T14:20:06.737Z,3.92
2023-01-21T14:23:01.486Z,3.91
2023-01-21T14:25:48.184Z,3.88
2023-01-21T14:28:34.167Z,3.89
2023-01-21T14:31:16.458Z,3.89
2023-01-21T14:33:53.083Z,3.87
2023-01-21T14:36:58.138Z,3.80
2023-01-21T14:39:44.006Z,3.78
2023-01-21T14:42:14.977Z,3.79
2023-01-21T14:45:04.001Z,3.80
2023-01-21T14:47:30.753Z,3.83
2023-01-21T14:50:00.328Z,3.84
2023-01-21T14:52:38.377Z,3.80
2023-01-21T14:55:28.060Z,3.77
2023-01-21T14:57:57.754Z,3.73
2023-01-21T15:00:30.763Z,3.65
2023-01-21T15:03:10.288Z,3.62
2023-01-21T15:05:40.315Z,3.59
2023-01-21T15:08:16.310Z,3.55
2023-01-21T15:10:50.217Z,3.52
2023-01-21T15:13:40.062Z,3.49
2023-01-21T15:16:31.851Z,3.45
2023-01-21T15:19:08.752Z,3.33
2023-01-21T15:21:41.331Z,3.28
2023-01-21T15:24:31.123Z,3.27
2023-01-21T15:27:19.722Z,3.20
2023-01-21T15:30:00.743Z,3.20
2023-01-21T15:32:44.962Z,3.17
2023-01-21T15:35:30.804Z,3.14
2023-01-21T15:38:02.247Z,3.10
2023-01-21T15:40:38.192Z,3.11
2023-01-21T15:43:17.430Z,3.12
2023-01-21T15:46:20.374Z,3.10
2023-01-21T15:48:57.831Z,3.13
2023-01-21T15:51:39.875Z,3.15
2023-01-21T15:54:30.285Z,3.17
2023-01-21T15:57:16.232Z,3.19
2023-01-21T15:59:52.185Z,3.23
2023-01-21T16:02:19.568Z,3.24
2023-01-21T16:05:23.912Z,3.21
2023-01-21T16:08:13.529Z,3.18
2023-01-21T16:11:12.062Z,3.20
2023-01-21T16:13:51.498Z,3.21
2023-01-21T16:16:53.451Z,3.20
2023-01-21T16:19:26.556Z,3.21
2023-01-21T16:21:59.380Z,3.19
2023-01-21T16:24:30.178Z,3.15
2023-01-21T16:27:27.243Z,3.11
2023-01-21T16:29:59.614Z,3.00
2023-01-21T16:32:27.671Z,2.93
2023-01-21T16:34:55.703Z,2.91
2023-01-21T16:37:28.186Z,2.86
2023-01-21T16:40:17.173Z,2.85
2023-01-21T16:42:44.506Z,2.78
2023-01-21T16:45:19.216Z,2.79
2023-01-21T16:47:56.878Z,2.78
2023-01-21T16:50:27.031Z,2.82
2023-01-21T16:52:57.972Z,2.82
2023-01-21T16:55:27.626Z,2.78
2023-01-21T16:57:57.128Z,2.72
2023-01-21T17:00:30.108Z,2.78
2023-01-21T17:03:00.400Z,2.80
2023-01-21T17:05:37.591Z,2.81
2023-01-21T17:08:11.503Z,2.83
2023-01-21T17:10:51.347Z,2.85
2023-01-21T17:13:19.699Z,2.78
2023-01-21T17:15:58.278Z,2.82
2023-01-21T17:18:39.054Z,2.81
2023-01-21T17:21:05.977Z,2.79
2023-01-21T17:23:58.640Z,2.79
2023-01-21T17:26:32.511Z,2.81
2023-01-21T17:29:16.835Z,2.81
2023-01-21T17:31:45.221Z,2.81
2023-01-21T17:34:15.692Z,2.84
2023-01-21T17:36:44.941Z,2.87
2023-01-21T17:39:13.689Z,2.89
2023-01-21T17:41:44.798Z,2.91
2023-01-21T17:44:22.174Z,2.95
2023-01-21T17:46:52.815Z,2.98
2023-01-21T17:49:25.498Z,2.95
2023-01-21T17:51:56.638Z,2.95
2023-01-21T17:54:26.282Z,2.98
2023-01-21T17:56:58.322Z,3.00
2023-01-21T17:59:38.999Z,2.99
2023-01-21T18:02:11.716Z,3.01
2023-01-21T18:04:39.814Z,3.03
2023-01-21T18:07:23.033Z,3.05
2023-01-21T18:09:54.365Z,3.04
2023-01-21T18:12:21.906Z,3.02
2023-01-21T18:14:49.172Z,3.00
2023-01-21T18:17:22.839Z,2.98
2023-01-21T18:19:49.938Z,2.99
2023-01-21T18:22:31.884Z,2.95
2023-01-21T18:25:01.117Z,2.90
2023-01-21T18:27:28.738Z,2.84
2023-01-21T18:29:58.575Z,2.79
2023-01-21T18:32:26.007Z,2.75
2023-01-21T18:34:52.784Z,2.76
2023-01-21T18:37:20.717Z,2.76
2023-01-21T18:39:48.799Z,2.80
2023-01-21T18:42:17.930Z,2.80
2023-01-21T18:44:45.028Z,2.73
2023-01-21T18:47:14.836Z,2.69
2023-01-21T18:49:42.292Z,2.64
2023-01-21T18:52:18.943Z,2.69
2023-01-21T18:54:45.776Z,2.73
2023-01-21T18:57:19.581Z,2.78
2023-01-21T18:59:47.481Z,2.79
2023-01-21T19:02:18.243Z,2.79
2023-01-21T19:04:46.707Z,2.80
2023-01-21T19:07:21.559Z,2.78
2023-01-21T19:09:51.289Z,2.80
2023-01-21T19:12:21.856Z,2.84
2023-01-21T19:14:50.113Z,2.84
2023-01-21T19:17:27.075Z,2.83
2023-01-21T19:19:54.827Z,2.80
2023-01-21T19:22:21.872Z,2.82
2023-01-21T19:24:49.701Z,2.69
2023-01-21T19:27:31.021Z,2.69
2023-01-21T19:29:58.088Z,2.70
2023-01-21T19:32:25.139Z,2.67
2023-01-21T19:34:52.593Z,2.70
2023-01-21T19:37:22.891Z,2.70
2023-01-21T19:39:49.630Z,2.72
2023-01-21T19:42:17.917Z,2.73
2023-01-21T19:44:44.974Z,2.72
2023-01-21T19:47:24.970Z,2.64
2023-01-21T19:49:51.759Z,2.67
2023-01-21T19:52:18.521Z,2.60
2023-01-21T19:54:45.351Z,2.58
2023-01-21T19:57:17.608Z,2.59
2023-01-21T19:59:47.393Z,2.59
2023-01-21T20:02:14.642Z,2.51
2023-01-21T20:04:41.926Z,2.43
2023-01-21T20:07:14.575Z,2.46
2023-01-21T20:09:42.348Z,2.45
2023-01-21T20:12:13.012Z,2.41
2023-01-21T20:14:39.761Z,2.42
2023-01-21T20:17:06.697Z,2.49
2023-01-21T20:19:33.692Z,2.50
2023-01-21T20:22:02.374Z,2.56
2023-01-21T20:24:34.342Z,2.62
2023-01-21T20:27:05.233Z,2.67
2023-01-21T20:29:34.641Z,2.67
2023-01-21T20:32:02.138Z,2.62
2023-01-21T20:34:31.472Z,2.59
2023-01-21T20:36:59.531Z,2.50
2023-01-21T20:39:26.514Z,2.50
2023-01-21T20:41:53.233Z,2.51
2023-01-21T20:44:20.069Z,2.51
2023-01-21T20:46:47.921Z,2.52
2023-01-21T20:49:15.021Z,2.54
2023-01-21T20:51:43.407Z,2.57
2023-01-21T20:54:10.962Z,2.56
2023-01-21T20:56:38.568Z,2.53
2023-01-21T20:59:05.464Z,2.52
2023-01-21T21:01:35.184Z,2.50
2023-01-21T21:04:02.747Z,2.52
2023-01-21T21:06:30.099Z,2.53
2023-01-21T21:08:58.023Z,2.58
2023-01-21T21:11:24.897Z,2.62
2023-01-21T21:13:52.945Z,2.70
2023-01-21T21:16:31.585Z,2.74
2023-01-21T21:19:00.162Z,2.81
2023-01-21T21:21:26.942Z,2.86
2023-01-21T21:23:53.731Z,2.89
2023-01-21T21:26:24.215Z,2.93
2023-01-21T21:28:57.553Z,2.95
2023-01-21T21:31:26.201Z,2.87
2023-01-21T21:33:53.604Z,2.83
2023-01-21T21:36:23.167Z,2.83
2023-01-21T21:38:52.349Z,2.86
2023-01-21T21:41:42.852Z,2.87
2023-01-21T21:44:10.897Z,2.86
2023-01-21T21:46:57.050Z,2.80
2023-01-21T21:49:24.650Z,2.84
2023-01-21T21:51:51.397Z,2.81
2023-01-21T21:54:18.827Z,2.81
2023-01-21T21:56:47.509Z,2.81
2023-01-21T21:59:15.188Z,2.84
2023-01-21T22:01:43.806Z,2.85
2023-01-21T22:04:10.815Z,2.89
2023-01-21T22:06:37.619Z,2.93
2023-01-21T22:09:04.814Z,2.94
2023-01-21T22:11:31.613Z,2.97
2023-01-21T22:13:59.143Z,3.00
2023-01-21T22:16:27.920Z,3.01
2023-01-21T22:18:57.776Z,3.03
2023-01-21T22:21:28.287Z,3.03
2023-01-21T22:23:55.922Z,3.05
2023-01-21T22:26:25.727Z,3.04
2023-01-21T22:28:53.631Z,3.03
2023-01-21T22:31:24.191Z,3.02
2023-01-21T22:33:52.484Z,3.04
2023-01-21T22:36:22.234Z,3.08
2023-01-21T22:38:49.686Z,3.09
2023-01-21T22:41:20.147Z,3.11
2023-01-21T22:43:48.592Z,3.12
2023-01-21T22:46:28.327Z,3.14
2023-01-21T22:48:55.992Z,3.17
2023-01-21T22:51:23.534Z,3.16
2023-01-21T22:53:51.149Z,3.19
2023-01-21T22:56:25.431Z,3.17
2023-01-21T22:58:58.776Z,3.12
2023-01-21T23:01:31.105Z,3.13
2023-01-21T23:03:59.659Z,3.12
2023-01-21T23:06:28.420Z,3.11
2023-01-21T23:08:56.851Z,3.12
2023-01-21T23:11:23.695Z,3.10
2023-01-21T23:13:53.387Z,3.06
2023-01-21T23:16:21.186Z,3.08
2023-01-21T23:18:48.681Z,3.08
2023-01-21T23:21:19.530Z,3.05
2023-01-21T23:23:46.872Z,3.05
2023-01-21T23:26:14.209Z,3.04
2023-01-21T23:28:41.699Z,3.01
2023-01-21T23:31:16.266Z,3.03
2023-01-21T23:33:43.526Z,3.04
2023-01-21T23:36:15.345Z,3.08
2023-01-21T23:38:43.013Z,3.03
2023-01-21T23:41:12.681Z,3.01
2023-01-21T23:43:39.905Z,2.99
2023-01-21T23:46:11.914Z,3.00
2023-01-21T23:48:39.920Z,3.02
2023-01-21T23:51:11.559Z,3.00
2023-01-21T23:53:38.777Z,3.00
2023-01-21T23:56:23.539Z,2.98
2023-01-21T23:58:51.969Z,3.00
